Aviation Digital Data Service (ADDS)

Output produced by METARs form (1706 UTC 24 April 2017)
found at http://www.aviationweather.gov/adds/metars/
 
DRRN 241600Z VRB03KT 7000 FEW046 43/06 Q1006 NOSIG
TAF DRRN 241100Z 2412/2518 25010KT 6000 NSC 
     TEMPO 2415/2420 4000 DU TS FEW050CB 
     TEMPO 2506/2508 3500 DU 
     TEMPO 2509/2512 26025KT 2500 BLDU
       
DRZA 241600Z VRB02KT 3900 DU NSC 40/M03 Q1010
TAF DRZA 241100Z 2412/2512 10015KT 1500 DU NSC 
     BECMG 2413/2415 3500 
     BECMG 2416/2418 6000 NSW 
     TEMPO 2508/2512 12025KT 2500 BLDU
       
DRRM 241600Z 08006KT CAVOK 41/08 Q1008
DRRT 241600Z 24004KT CAVOK 42/M00 Q1008
DRZR 241600Z 10004KT 2500 DU NSC 40/M01 Q1009
TAF DRZR 241100Z 2412/2512 14010KT 2000 DU NSC 
     BECMG 2414/2416 4500 
     BECMG 2418/2420 6000 NSW 
     TEMPO 2500/2502 4000 DU 
     BECMG 2504/2506 1200 DU 
     TEMPO 2506/2510 0700